createdAt,value
2023-04-15T00:05:05.603Z,8.24
2023-04-15T00:12:49.868Z,8.26
2023-04-15T00:20:56.128Z,8.27
2023-04-15T00:28:56.154Z,8.28
2023-04-15T00:36:42.255Z,8.26
2023-04-15T00:44:20.167Z,8.28
2023-04-15T00:51:54.003Z,8.28
2023-04-15T00:59:45.415Z,8.29
2023-04-15T01:07:19.440Z,8.26
2023-04-15T01:15:21.834Z,8.26
2023-04-15T01:22:56.867Z,8.26
2023-04-15T01:30:59.758Z,8.25
2023-04-15T01:38:34.327Z,8.23
2023-04-15T01:54:30.322Z,8.26
2023-04-15T02:02:13.014Z,8.25
2023-04-15T02:10:01.605Z,8.25
2023-04-15T02:17:59.065Z,8.27
2023-04-15T02:25:36.023Z,8.27
2023-04-15T02:33:26.637Z,8.25
2023-04-15T02:41:00.428Z,8.24
2023-04-15T02:48:49.421Z,8.25
2023-04-15T02:56:44.980Z,8.24
2023-04-15T03:04:37.206Z,8.26
2023-04-15T03:12:11.016Z,8.26
2023-04-15T03:20:02.365Z,8.31
2023-04-15T03:27:39.630Z,8.32
2023-04-15T03:35:20.955Z,8.32
2023-04-15T03:59:01.533Z,8.40
2023-04-15T04:06:45.665Z,8.42
2023-04-15T04:14:29.741Z,8.45
2023-04-15T04:22:13.576Z,8.49
2023-04-15T04:29:56.819Z,8.52
2023-04-15T04:38:03.952Z,8.54
2023-04-15T04:45:41.408Z,8.58
2023-04-15T05:01:21.947Z,8.66
2023-04-15T05:09:20.776Z,8.70
2023-04-15T05:17:02.174Z,8.73
2023-04-15T05:32:49.275Z,8.81
2023-04-15T05:40:24.485Z,8.83
2023-04-15T05:48:04.390Z,8.86
2023-04-15T05:55:45.585Z,8.92
2023-04-15T06:03:25.965Z,9.00
2023-04-15T06:11:50.681Z,9.11
2023-04-15T06:19:54.519Z,9.19
2023-04-15T06:27:31.118Z,9.21
2023-04-15T06:35:16.035Z,9.28
2023-04-15T06:42:56.504Z,9.36
2023-04-15T06:50:31.768Z,9.45
2023-04-15T06:58:05.835Z,9.58
2023-04-15T07:05:42.586Z,9.77
2023-04-15T07:13:23.994Z,9.86
2023-04-15T07:28:56.287Z,10.02
2023-04-15T07:36:31.527Z,10.04
2023-04-15T07:44:14.204Z,9.99
2023-04-15T07:51:57.821Z,10.04
2023-04-15T07:59:33.481Z,10.07
2023-04-15T08:07:16.346Z,10.10
2023-04-15T08:14:57.780Z,10.10
2023-04-15T08:22:39.165Z,10.09
2023-04-15T08:30:19.388Z,10.09
2023-04-15T08:38:02.006Z,10.09
2023-04-15T08:45:43.309Z,10.05
2023-04-15T08:53:34.135Z,10.04
2023-04-15T09:33:24.071Z,10.08
2023-04-15T09:41:24.373Z,10.13
2023-04-15T09:49:26.681Z,10.12
2023-04-15T09:57:15.803Z,10.12
2023-04-15T10:04:58.022Z,10.10
2023-04-15T10:12:33.638Z,10.11
2023-04-15T10:20:56.402Z,10.14
2023-04-15T10:28:50.906Z,10.16
2023-04-15T10:36:48.463Z,10.15
2023-04-15T10:44:31.306Z,10.18
2023-04-15T10:52:11.438Z,10.25
2023-04-15T11:00:14.500Z,10.29
2023-04-15T11:08:13.477Z,10.32
2023-04-15T11:48:48.743Z,10.39
2023-04-15T11:56:28.858Z,10.39
2023-04-15T12:04:28.802Z,10.43
2023-04-15T12:12:03.012Z,10.45
2023-04-15T12:19:45.659Z,10.53
2023-04-15T12:27:19.555Z,10.59
2023-04-15T12:43:02.070Z,10.65
2023-04-15T12:50:42.014Z,10.70
2023-04-15T12:58:15.902Z,10.80
2023-04-15T13:05:53.893Z,10.79
2023-04-15T13:13:35.350Z,10.85
2023-04-15T13:21:18.940Z,10.90
2023-04-15T13:29:14.528Z,10.99
2023-04-15T13:36:49.942Z,10.99
2023-04-15T13:44:26.599Z,11.00
2023-04-15T13:52:02.162Z,10.99
2023-04-15T13:59:44.061Z,10.95
2023-04-15T14:07:26.985Z,10.92
2023-04-15T14:15:07.645Z,10.95
2023-04-15T14:22:56.222Z,10.96
2023-04-15T14:38:31.454Z,10.84
2023-04-15T14:54:03.431Z,10.84
2023-04-15T15:01:41.020Z,10.87
2023-04-15T15:09:29.336Z,10.80
2023-04-15T15:17:12.300Z,10.79
2023-04-15T15:24:47.752Z,10.79
2023-04-15T15:32:32.128Z,10.77
2023-04-15T15:40:22.870Z,10.72
2023-04-15T15:48:08.786Z,10.73
2023-04-15T15:55:51.108Z,10.73
2023-04-15T16:03:32.315Z,10.73
2023-04-15T16:11:31.100Z,10.72
2023-04-15T16:19:05.126Z,10.71
2023-04-15T16:26:49.462Z,10.70
2023-04-15T16:34:48.479Z,10.70
2023-04-15T16:50:32.422Z,10.64
2023-04-15T16:58:14.943Z,10.64
2023-04-15T17:05:54.999Z,10.63
2023-04-15T17:13:36.594Z,10.65
2023-04-15T17:21:19.797Z,10.63
2023-04-15T17:28:55.025Z,10.63
2023-04-15T17:44:30.366Z,10.59
2023-04-15T17:52:08.351Z,10.55
2023-04-15T18:00:17.982Z,10.55
2023-04-15T18:07:59.180Z,10.55
2023-04-15T18:23:49.695Z,10.55
2023-04-15T18:31:23.703Z,10.54
2023-04-15T18:47:13.916Z,10.48
2023-04-15T19:02:57.428Z,10.60
2023-04-15T19:19:51.805Z,10.52
2023-04-15T19:28:02.916Z,10.49
2023-04-15T19:36:42.067Z,10.48
2023-04-15T19:44:34.878Z,10.46
2023-04-15T19:52:41.864Z,10.45
2023-04-15T20:00:43.171Z,10.45
2023-04-15T20:08:53.089Z,10.39
2023-04-15T20:16:30.572Z,10.38
2023-04-15T20:24:19.394Z,10.36
2023-04-15T20:40:30.723Z,10.28
2023-04-15T20:48:11.098Z,10.27
2023-04-15T20:56:13.412Z,10.26
2023-04-15T21:03:58.830Z,10.28
2023-04-15T21:19:30.594Z,10.25
2023-04-15T21:27:35.696Z,10.22
2023-04-15T21:35:41.131Z,10.21
2023-04-15T21:43:16.904Z,10.23
2023-04-15T21:50:50.716Z,10.19
2023-04-15T21:58:54.663Z,10.22
2023-04-15T22:06:46.930Z,10.20
2023-04-15T22:14:59.304Z,10.21
2023-04-15T22:22:43.514Z,10.23
2023-04-15T22:30:35.828Z,10.21
2023-04-15T22:38:12.511Z,10.17
2023-04-15T22:54:00.222Z,10.14
2023-04-15T23:01:43.338Z,10.13
2023-04-15T23:17:10.300Z,10.10
2023-04-15T23:25:09.298Z,10.07
2023-04-15T23:32:46.359Z,10.06
2023-04-15T23:40:48.320Z,10.05
2023-04-15T23:48:25.174Z,10.01
